Terminal Aerodrome Forecast
Issued by NWS Tuscon, AZ

Current Version | Previous Version | Text Only | Print | Product List | Glossary On
Versions: 1 2 3 4 5 6 7 8 9 10 11 12 13
000
FTUS45 KTWC 280500
TAFDUG
TAF
KDUG 280536Z 2806/0106 21012KT P6SM BKN250
     FM280800 18011KT P6SM SCT250
     FM281600 19018G28KT P6SM SCT040 SCT130 BKN250
     FM282000 23023G35KT P6SM SCT040 BKN120
     FM010300 20014G20KT P6SM SCT030 BKN070=

USA.gov is the U.S. government's official web portal to all federal, state and local government web resources and services.